createdAt,value
2023-04-14T00:02:02.583Z,1.60
2023-04-14T00:04:29.233Z,1.70
2023-04-14T00:06:58.382Z,1.60
2023-04-14T00:09:24.886Z,1.10
2023-04-14T00:11:52.123Z,1.48
2023-04-14T00:14:18.513Z,1.95
2023-04-14T00:16:46.372Z,1.30
2023-04-14T00:19:12.877Z,1.55
2023-04-14T00:21:39.309Z,1.13
2023-04-14T00:24:05.872Z,1.52
2023-04-14T00:26:33.141Z,1.60
2023-04-14T00:28:59.758Z,1.40
2023-04-14T00:31:26.463Z,1.42
2023-04-14T00:33:52.909Z,1.40
2023-04-14T00:36:19.276Z,2.05
2023-04-14T00:38:46.299Z,1.55
2023-04-14T00:41:12.874Z,1.58
2023-04-14T00:43:39.272Z,1.40
2023-04-14T00:46:07.007Z,1.42
2023-04-14T00:48:33.867Z,1.63
2023-04-14T00:51:00.434Z,1.60
2023-04-14T00:53:27.401Z,1.65
2023-04-14T00:55:53.889Z,1.67
2023-04-14T00:58:20.396Z,1.40
2023-04-14T01:00:53.885Z,1.50
2023-04-14T01:03:20.915Z,1.90
2023-04-14T01:05:47.464Z,1.50
2023-04-14T01:08:14.204Z,1.50
2023-04-14T01:11:10.825Z,1.50
2023-04-14T01:13:45.560Z,1.60
2023-04-14T01:16:20.802Z,1.48
2023-04-14T01:21:18.431Z,1.60
2023-04-14T01:24:09.327Z,1.92
2023-04-14T01:26:36.021Z,1.88
2023-04-14T01:29:02.578Z,2.40
2023-04-14T01:31:41.232Z,1.42
2023-04-14T01:34:23.722Z,1.45
2023-04-14T01:36:58.446Z,1.70
2023-04-14T01:39:30.479Z,1.35
2023-04-14T01:42:02.084Z,1.40
2023-04-14T01:44:30.604Z,1.60
2023-04-14T01:47:05.785Z,1.50
2023-04-14T01:52:02.032Z,1.30
2023-04-14T01:54:31.611Z,1.65
2023-04-14T01:57:01.196Z,1.85
2023-04-14T01:59:29.390Z,1.35
2023-04-14T02:01:56.271Z,1.70
2023-04-14T02:04:27.935Z,1.40
2023-04-14T02:06:56.619Z,1.30
2023-04-14T02:09:24.999Z,1.42
2023-04-14T02:11:53.741Z,1.40
2023-04-14T02:14:21.387Z,1.40
2023-04-14T02:16:50.791Z,1.55
2023-04-14T02:19:19.780Z,1.42
2023-04-14T02:21:49.367Z,1.50
2023-04-14T02:24:15.844Z,1.67
2023-04-14T02:26:51.640Z,1.58
2023-04-14T02:29:21.585Z,1.52
2023-04-14T02:31:56.753Z,1.45
2023-04-14T02:36:57.884Z,1.60
2023-04-14T02:39:38.172Z,1.50
2023-04-14T02:42:15.485Z,1.52
2023-04-14T02:44:51.524Z,1.60
2023-04-14T02:47:27.198Z,1.58
2023-04-14T02:49:56.359Z,1.40
2023-04-14T02:52:28.448Z,1.50
2023-04-14T02:54:56.841Z,1.90
2023-04-14T02:57:24.017Z,1.60
2023-04-14T02:59:52.668Z,2.28
2023-04-14T03:02:21.169Z,2.05
2023-04-14T03:04:47.964Z,1.80
2023-04-14T03:07:16.551Z,1.73
2023-04-14T03:09:42.977Z,1.77
2023-04-14T03:12:12.794Z,1.58
2023-04-14T03:14:40.936Z,3.25
2023-04-14T03:17:08.019Z,1.92
2023-04-14T03:19:34.769Z,1.80
2023-04-14T03:22:03.753Z,1.73
2023-04-14T03:24:32.527Z,2.08
2023-04-14T03:27:08.844Z,2.13
2023-04-14T03:29:41.690Z,2.03
2023-04-14T03:32:10.051Z,1.70
2023-04-14T03:34:41.281Z,1.67
2023-04-14T03:37:08.868Z,1.65
2023-04-14T03:39:38.844Z,1.83
2023-04-14T03:42:08.338Z,2.28
2023-04-14T03:44:36.650Z,1.63
2023-04-14T03:47:04.022Z,2.00
2023-04-14T03:49:33.322Z,1.90
2023-04-14T03:52:05.152Z,1.80
2023-04-14T03:54:33.694Z,1.75
2023-04-14T03:57:04.646Z,1.80
2023-04-14T03:59:32.262Z,2.20
2023-04-14T04:01:59.240Z,1.95
2023-04-14T04:04:26.131Z,2.75
2023-04-14T04:06:53.619Z,2.72
2023-04-14T04:09:22.463Z,2.70
2023-04-14T04:11:49.590Z,3.20
2023-04-14T04:14:18.841Z,2.42
2023-04-14T04:16:49.519Z,3.17
2023-04-14T04:19:20.394Z,3.08
2023-04-14T04:21:49.147Z,3.08
2023-04-14T04:24:17.999Z,2.58
2023-04-14T04:26:44.400Z,2.70
2023-04-14T04:29:11.838Z,3.28
2023-04-14T04:31:39.966Z,3.17
2023-04-14T04:34:07.841Z,3.45
2023-04-14T04:36:36.002Z,3.50
2023-04-14T04:39:03.191Z,3.45
2023-04-14T04:41:30.669Z,3.20
2023-04-14T04:43:57.349Z,3.45
2023-04-14T04:46:32.946Z,3.25
2023-04-14T04:48:59.713Z,3.08
2023-04-14T04:51:26.400Z,3.15
2023-04-14T04:53:52.798Z,3.45
2023-04-14T04:56:19.323Z,2.90
2023-04-14T04:58:46.893Z,3.33
2023-04-14T05:01:14.847Z,3.30
2023-04-14T05:03:41.516Z,3.53
2023-04-14T05:06:08.129Z,3.38
2023-04-14T05:08:34.538Z,3.55
2023-04-14T05:11:01.134Z,3.70
2023-04-14T05:13:27.548Z,2.88
2023-04-14T05:16:03.622Z,2.97
2023-04-14T05:18:31.174Z,3.53
2023-04-14T05:21:05.185Z,3.17
2023-04-14T05:23:36.581Z,3.60
2023-04-14T05:26:27.021Z,3.28
2023-04-14T05:28:51.409Z,3.53
2023-04-14T05:31:17.916Z,3.65
2023-04-14T05:33:44.319Z,4.38
2023-04-14T05:36:11.268Z,3.38
2023-04-14T05:38:39.969Z,4.30
2023-04-14T05:41:07.455Z,4.10
2023-04-14T05:43:33.944Z,4.13
2023-04-14T05:46:01.467Z,4.07
2023-04-14T05:48:30.488Z,4.13
2023-04-14T05:50:57.938Z,4.03
2023-04-14T05:53:24.562Z,4.18
2023-04-14T05:55:51.939Z,3.72
2023-04-14T05:58:18.406Z,3.92
2023-04-14T06:00:44.839Z,3.60
2023-04-14T06:03:11.655Z,3.75
2023-04-14T06:05:38.258Z,3.90
2023-04-14T06:08:04.819Z,3.80
2023-04-14T06:10:32.115Z,3.30
2023-04-14T06:12:58.662Z,3.88
2023-04-14T06:15:28.164Z,3.85
2023-04-14T06:17:54.777Z,3.80
2023-04-14T06:20:21.887Z,3.35
2023-04-14T06:22:48.432Z,3.25
2023-04-14T06:25:14.960Z,3.15
2023-04-14T06:27:41.397Z,2.90
2023-04-14T06:30:08.434Z,2.88
2023-04-14T06:32:34.948Z,2.63
2023-04-14T06:35:01.511Z,2.55
2023-04-14T06:37:27.992Z,3.03
2023-04-14T06:39:54.430Z,2.75
2023-04-14T06:42:21.176Z,3.22
2023-04-14T06:44:47.561Z,3.33
2023-04-14T06:47:19.599Z,2.97
2023-04-14T06:49:46.128Z,3.00
2023-04-14T06:52:12.593Z,3.60
2023-04-14T06:54:38.993Z,3.00
2023-04-14T06:57:05.364Z,3.20
2023-04-14T06:59:31.809Z,3.70
2023-04-14T07:01:58.849Z,3.00
2023-04-14T07:04:25.808Z,2.78
2023-04-14T07:06:52.331Z,3.42
2023-04-14T07:09:19.442Z,2.90
2023-04-14T07:11:46.493Z,2.88
2023-04-14T07:14:12.913Z,3.00
2023-04-14T07:16:39.473Z,3.00
2023-04-14T07:19:05.934Z,2.75
2023-04-14T07:21:32.588Z,2.63
2023-04-14T07:23:59.138Z,2.80
2023-04-14T07:26:25.876Z,2.70
2023-04-14T07:28:52.626Z,2.78
2023-04-14T07:31:19.264Z,2.88
2023-04-14T07:33:45.830Z,3.55
2023-04-14T07:36:12.702Z,2.63
2023-04-14T07:38:39.160Z,2.67
2023-04-14T07:41:06.607Z,2.40
2023-04-14T07:43:36.351Z,2.70
2023-04-14T07:46:08.098Z,2.53
2023-04-14T07:48:36.504Z,2.65
2023-04-14T07:51:04.701Z,2.10
2023-04-14T07:53:32.401Z,2.78
2023-04-14T07:55:59.766Z,2.40
2023-04-14T07:58:29.038Z,2.40
2023-04-14T08:00:56.012Z,2.28
2023-04-14T08:03:22.599Z,2.22
2023-04-14T08:05:49.305Z,2.53
2023-04-14T08:08:15.807Z,2.35
2023-04-14T08:10:42.660Z,1.90
2023-04-14T08:13:09.644Z,2.17
2023-04-14T08:15:36.041Z,2.22
2023-04-14T08:18:02.947Z,2.08
2023-04-14T08:20:29.589Z,1.98
2023-04-14T08:22:56.869Z,2.20
2023-04-14T08:25:23.485Z,2.10
2023-04-14T08:27:49.995Z,2.72
2023-04-14T08:30:16.537Z,2.20
2023-04-14T08:32:43.073Z,1.88
2023-04-14T08:35:36.030Z,2.03
2023-04-14T08:37:56.255Z,3.25
2023-04-14T08:40:25.255Z,2.05
2023-04-14T08:42:51.804Z,2.33
2023-04-14T08:45:20.034Z,2.63
2023-04-14T08:47:51.798Z,2.33
2023-04-14T08:50:25.627Z,2.35
2023-04-14T08:52:57.140Z,2.70
2023-04-14T08:55:25.503Z,2.33
2023-04-14T08:57:52.775Z,2.78
2023-04-14T09:00:20.012Z,2.95
2023-04-14T09:02:47.281Z,2.65
2023-04-14T09:05:15.613Z,2.20
2023-04-14T09:07:43.048Z,2.22
2023-04-14T09:10:11.519Z,1.90
2023-04-14T09:12:42.121Z,2.70
2023-04-14T09:15:09.666Z,1.70
2023-04-14T09:17:36.867Z,1.58
2023-04-14T09:20:37.337Z,1.75
2023-04-14T09:22:51.288Z,2.03
2023-04-14T09:25:19.986Z,2.00
2023-04-14T09:27:49.445Z,1.80
2023-04-14T09:30:17.774Z,1.67
2023-04-14T09:32:45.211Z,1.67
2023-04-14T09:35:14.191Z,1.50
2023-04-14T09:37:44.935Z,1.65
2023-04-14T09:40:26.733Z,1.50
2023-04-14T09:42:54.140Z,1.95
2023-04-14T09:45:20.572Z,2.00
2023-04-14T09:47:47.139Z,1.70
2023-04-14T09:50:13.583Z,1.48
2023-04-14T09:52:44.831Z,1.42
2023-04-14T09:55:13.319Z,1.70
2023-04-14T09:57:47.486Z,1.60
2023-04-14T10:00:18.802Z,1.27
2023-04-14T10:02:59.124Z,1.75
2023-04-14T10:05:33.002Z,1.77
2023-04-14T10:08:05.378Z,1.63
2023-04-14T10:10:32.576Z,1.77
2023-04-14T10:13:00.573Z,1.80
2023-04-14T10:15:27.632Z,1.58
2023-04-14T10:17:54.352Z,1.50
2023-04-14T10:20:21.029Z,1.23
2023-04-14T10:22:48.167Z,1.83
2023-04-14T10:25:15.416Z,1.30
2023-04-14T10:27:43.080Z,1.95
2023-04-14T10:30:10.052Z,1.17
2023-04-14T10:32:38.650Z,1.58
2023-04-14T10:35:06.426Z,1.08
2023-04-14T10:37:33.417Z,1.42
2023-04-14T10:40:01.857Z,1.30
2023-04-14T10:42:32.869Z,1.48
2023-04-14T10:45:07.665Z,2.00
2023-04-14T10:50:13.541Z,1.10
2023-04-14T10:52:49.762Z,1.27
2023-04-14T10:55:16.245Z,1.40
2023-04-14T10:57:45.454Z,1.15
2023-04-14T11:00:21.446Z,1.70
2023-04-14T11:02:55.925Z,1.40
2023-04-14T11:05:22.564Z,0.93
2023-04-14T11:07:54.366Z,1.15
2023-04-14T11:10:21.241Z,1.20
2023-04-14T11:12:49.384Z,1.42
2023-04-14T11:15:18.975Z,1.27
2023-04-14T11:17:45.500Z,1.35
2023-04-14T11:20:19.089Z,1.23
2023-04-14T11:22:47.509Z,1.10
2023-04-14T11:25:15.754Z,1.10
2023-04-14T11:27:43.249Z,1.10
2023-04-14T11:30:15.500Z,1.05
2023-04-14T11:32:47.643Z,1.55
2023-04-14T11:35:15.908Z,1.10
2023-04-14T11:37:43.147Z,1.02
2023-04-14T11:40:14.602Z,1.00
2023-04-14T11:42:46.485Z,1.00
2023-04-14T11:45:15.395Z,1.17
2023-04-14T11:47:57.919Z,1.52
2023-04-14T11:50:25.056Z,0.98
2023-04-14T11:52:51.676Z,1.30
2023-04-14T11:55:18.158Z,1.02
2023-04-14T11:57:45.893Z,1.02
2023-04-14T12:00:13.785Z,1.08
2023-04-14T12:02:44.612Z,1.05
2023-04-14T12:05:14.126Z,1.00
2023-04-14T12:07:42.992Z,1.00
2023-04-14T12:10:10.864Z,0.95
2023-04-14T12:12:37.898Z,1.35
2023-04-14T12:15:05.517Z,1.25
2023-04-14T12:17:32.315Z,1.17
2023-04-14T12:19:58.836Z,0.95
2023-04-14T12:22:28.747Z,1.30
2023-04-14T12:24:58.322Z,1.80
2023-04-14T12:27:26.540Z,2.67
2023-04-14T12:29:53.282Z,1.48
2023-04-14T12:32:22.101Z,1.35
2023-04-14T12:34:58.557Z,1.40
2023-04-14T12:37:26.906Z,1.20
2023-04-14T12:40:00.154Z,1.20
2023-04-14T12:42:43.149Z,1.63
2023-04-14T12:45:10.573Z,1.10
2023-04-14T12:47:37.752Z,0.85
2023-04-14T12:50:23.547Z,0.93
2023-04-14T12:52:50.092Z,1.30
2023-04-14T12:55:21.106Z,0.90
2023-04-14T12:57:47.717Z,1.17
2023-04-14T13:00:14.492Z,1.10
2023-04-14T13:02:43.562Z,0.90
2023-04-14T13:05:12.023Z,1.00
2023-04-14T13:07:38.495Z,1.48
2023-04-14T13:10:05.810Z,1.17
2023-04-14T13:12:32.230Z,1.10
2023-04-14T13:14:58.592Z,0.93
2023-04-14T13:17:25.111Z,1.10
2023-04-14T13:19:51.665Z,0.98
2023-04-14T13:22:18.158Z,1.10
2023-04-14T13:24:44.588Z,1.00
2023-04-14T13:27:11.586Z,0.90
2023-04-14T13:29:38.876Z,1.00
2023-04-14T13:32:11.050Z,0.93
2023-04-14T13:34:39.287Z,0.75
2023-04-14T13:37:06.376Z,0.85
2023-04-14T13:39:33.113Z,0.80
2023-04-14T13:41:59.607Z,0.70
2023-04-14T13:44:26.071Z,0.70
2023-04-14T13:46:52.795Z,0.73
2023-04-14T13:49:19.298Z,0.95
2023-04-14T13:51:45.830Z,0.85
2023-04-14T13:54:12.258Z,0.70
2023-04-14T13:56:38.803Z,0.70
2023-04-14T13:59:05.339Z,0.80
2023-04-14T14:01:31.920Z,0.90
2023-04-14T14:03:58.847Z,0.70
2023-04-14T14:06:26.469Z,1.00
2023-04-14T14:09:05.957Z,0.60
2023-04-14T14:11:33.493Z,0.80
2023-04-14T14:14:00.237Z,1.05
2023-04-14T14:16:36.210Z,0.60
2023-04-14T14:19:05.241Z,0.85
2023-04-14T14:21:31.810Z,0.73
2023-04-14T14:23:58.422Z,0.85
2023-04-14T14:26:24.886Z,0.50
2023-04-14T14:28:51.316Z,0.70
2023-04-14T14:31:17.818Z,0.88
2023-04-14T14:33:44.393Z,0.80
2023-04-14T14:36:11.140Z,0.68
2023-04-14T14:38:38.222Z,0.77
2023-04-14T14:41:04.912Z,0.90
2023-04-14T14:43:31.311Z,0.70
2023-04-14T14:45:57.813Z,0.60
2023-04-14T14:48:24.373Z,1.05
2023-04-14T14:50:50.909Z,0.82
2023-04-14T14:53:17.228Z,0.80
2023-04-14T14:55:43.613Z,0.50
2023-04-14T14:58:11.938Z,0.70
2023-04-14T15:00:39.108Z,0.70
2023-04-14T15:03:06.192Z,0.93
2023-04-14T15:05:33.513Z,0.98
2023-04-14T15:08:00.002Z,0.85
2023-04-14T15:10:26.566Z,0.88
2023-04-14T15:12:53.935Z,0.75
2023-04-14T15:15:20.358Z,1.00
2023-04-14T15:17:46.810Z,0.95
2023-04-14T15:20:13.411Z,1.17
2023-04-14T15:22:40.215Z,0.60
2023-04-14T15:25:08.976Z,0.73
2023-04-14T15:27:35.614Z,0.52
2023-04-14T15:30:02.196Z,0.55
2023-04-14T15:32:28.849Z,0.90
2023-04-14T15:34:55.865Z,0.70
2023-04-14T15:37:22.361Z,0.80
2023-04-14T15:39:48.799Z,0.43
2023-04-14T15:42:15.565Z,0.98
2023-04-14T15:44:41.919Z,0.80
2023-04-14T15:47:08.313Z,0.80
2023-04-14T15:49:34.738Z,0.70
2023-04-14T15:52:01.950Z,0.80
2023-04-14T15:54:28.870Z,0.90
2023-04-14T15:56:55.257Z,0.73
2023-04-14T15:59:21.637Z,1.20
2023-04-14T16:01:48.327Z,0.75
2023-04-14T16:04:14.890Z,0.70
2023-04-14T16:06:41.406Z,0.65
2023-04-14T16:09:07.828Z,1.00
2023-04-14T16:11:34.561Z,0.95
2023-04-14T16:14:01.216Z,1.00
2023-04-14T16:16:28.576Z,0.98
2023-04-14T16:18:55.314Z,0.70
2023-04-14T16:21:21.851Z,1.00
2023-04-14T16:23:48.250Z,0.93
2023-04-14T16:26:16.827Z,0.90
2023-04-14T16:28:43.646Z,0.77
2023-04-14T16:31:10.156Z,0.63
2023-04-14T16:33:36.601Z,0.82
2023-04-14T16:36:04.238Z,1.30
2023-04-14T16:38:30.946Z,0.80
2023-04-14T16:40:58.691Z,0.98
2023-04-14T16:43:27.951Z,0.60
2023-04-14T16:46:01.936Z,1.35
2023-04-14T16:48:28.493Z,0.73
2023-04-14T16:50:55.903Z,1.02
2023-04-14T16:53:22.744Z,0.98
2023-04-14T16:55:49.116Z,1.05
2023-04-14T16:58:15.473Z,0.90
2023-04-14T17:00:42.143Z,1.00
2023-04-14T17:03:08.698Z,0.70
2023-04-14T17:05:35.671Z,0.80
2023-04-14T17:08:03.583Z,0.70
2023-04-14T17:10:31.067Z,0.90
2023-04-14T17:12:57.515Z,0.57
2023-04-14T17:15:23.938Z,0.70
2023-04-14T17:17:50.392Z,0.70
2023-04-14T17:20:16.816Z,0.60
2023-04-14T17:22:43.361Z,0.50
2023-04-14T17:25:10.750Z,0.50
2023-04-14T17:27:37.887Z,0.70
2023-04-14T17:30:05.126Z,0.80
2023-04-14T17:32:32.493Z,0.90
2023-04-14T17:34:59.628Z,0.70
2023-04-14T17:37:26.595Z,0.90
2023-04-14T17:39:53.130Z,0.98
2023-04-14T17:42:19.560Z,0.75
2023-04-14T17:44:46.083Z,1.15
2023-04-14T17:47:15.594Z,0.80
2023-04-14T17:49:42.772Z,0.80
2023-04-14T17:52:10.978Z,0.70
2023-04-14T17:54:37.470Z,0.88
2023-04-14T17:57:04.381Z,0.85
2023-04-14T17:59:31.546Z,0.73
2023-04-14T18:01:58.321Z,1.13
2023-04-14T18:04:25.404Z,0.60
2023-04-14T18:06:51.845Z,0.90
2023-04-14T18:09:18.240Z,1.05
2023-04-14T18:11:45.250Z,0.95
2023-04-14T18:14:11.653Z,1.00
2023-04-14T18:16:38.891Z,0.82
2023-04-14T18:19:05.957Z,1.00
2023-04-14T18:21:32.363Z,1.20
2023-04-14T18:26:29.628Z,1.20
2023-04-14T18:28:56.369Z,1.25
2023-04-14T18:31:23.615Z,1.77
2023-04-14T18:33:50.977Z,1.80
2023-04-14T18:36:17.590Z,1.67
2023-04-14T18:38:44.034Z,1.42
2023-04-14T18:41:10.494Z,1.42
2023-04-14T18:43:36.997Z,1.60
2023-04-14T18:46:03.824Z,1.77
2023-04-14T18:48:30.342Z,1.38
2023-04-14T18:51:07.941Z,1.77
2023-04-14T18:53:34.667Z,2.10
2023-04-14T18:56:01.699Z,1.80
2023-04-14T18:58:30.263Z,1.65
2023-04-14T19:00:57.305Z,1.52
2023-04-14T19:03:24.095Z,1.70
2023-04-14T19:05:50.713Z,1.50
2023-04-14T19:08:17.169Z,1.40
2023-04-14T19:10:47.678Z,1.42
2023-04-14T19:13:17.431Z,1.98
2023-04-14T19:15:44.077Z,1.75
2023-04-14T19:18:11.337Z,1.35
2023-04-14T19:20:38.551Z,1.85
2023-04-14T19:23:05.074Z,1.60
2023-04-14T19:25:31.508Z,1.90
2023-04-14T19:28:01.112Z,1.52
2023-04-14T19:30:28.966Z,1.70
2023-04-14T19:32:55.682Z,1.85
2023-04-14T19:35:22.475Z,1.40
2023-04-14T19:37:49.015Z,1.60
2023-04-14T19:40:15.582Z,1.90
2023-04-14T19:42:42.172Z,1.80
2023-04-14T19:45:10.146Z,2.22
2023-04-14T19:47:36.684Z,2.03
2023-04-14T19:50:04.339Z,2.08
2023-04-14T19:52:30.784Z,1.60
2023-04-14T19:54:57.408Z,1.80
2023-04-14T19:57:23.964Z,1.88
2023-04-14T19:59:50.340Z,1.50
2023-04-14T20:02:16.914Z,1.65
2023-04-14T20:04:45.093Z,1.58
2023-04-14T20:07:11.570Z,1.40
2023-04-14T20:09:39.738Z,1.77
2023-04-14T20:12:06.201Z,1.80
2023-04-14T20:14:32.963Z,2.22
2023-04-14T20:16:59.496Z,2.05
2023-04-14T20:19:26.120Z,2.10
2023-04-14T20:21:52.516Z,2.22
2023-04-14T20:24:18.969Z,1.98
2023-04-14T20:26:45.623Z,2.75
2023-04-14T20:29:12.636Z,2.10
2023-04-14T20:31:39.682Z,2.28
2023-04-14T20:34:06.291Z,2.25
2023-04-14T20:36:35.847Z,2.03
2023-04-14T20:39:04.721Z,2.10
2023-04-14T20:41:34.724Z,1.77
2023-04-14T20:44:01.313Z,1.90
2023-04-14T20:46:28.097Z,2.05
2023-04-14T20:48:54.669Z,2.25
2023-04-14T20:51:21.152Z,2.10
2023-04-14T20:53:47.587Z,1.95
2023-04-14T20:56:14.062Z,2.95
2023-04-14T20:58:40.407Z,2.40
2023-04-14T21:01:06.881Z,4.68
2023-04-14T21:03:34.689Z,1.88
2023-04-14T21:06:02.006Z,1.77
2023-04-14T21:08:29.698Z,2.10
2023-04-14T21:11:15.595Z,2.13
2023-04-14T21:15:29.924Z,2.30
2023-04-14T21:16:29.933Z,2.03
2023-04-14T21:18:57.648Z,2.33
2023-04-14T21:21:24.172Z,2.50
2023-04-14T21:23:50.831Z,2.60
2023-04-14T21:26:17.775Z,2.45
2023-04-14T21:28:44.337Z,2.38
2023-04-14T21:31:11.280Z,2.63
2023-04-14T21:33:39.628Z,2.53
2023-04-14T21:36:06.974Z,2.45
2023-04-14T21:38:33.542Z,2.15
2023-04-14T21:41:00.045Z,2.65
2023-04-14T21:43:26.647Z,2.55
2023-04-14T21:45:53.996Z,2.20
2023-04-14T21:48:20.702Z,2.92
2023-04-14T21:50:47.289Z,3.30
2023-04-14T21:53:13.885Z,2.88
2023-04-14T21:55:40.982Z,2.58
2023-04-14T21:58:07.454Z,3.00
2023-04-14T22:00:33.889Z,2.80
2023-04-14T22:03:00.510Z,2.70
2023-04-14T22:05:27.050Z,2.80
2023-04-14T22:07:53.872Z,3.60
2023-04-14T22:10:21.709Z,3.67
2023-04-14T22:12:48.142Z,2.63
2023-04-14T22:15:15.528Z,2.45
2023-04-14T22:17:41.971Z,2.20
2023-04-14T22:20:09.776Z,2.47
2023-04-14T22:22:36.767Z,2.63
2023-04-14T22:25:04.186Z,2.53
2023-04-14T22:27:32.941Z,3.05
2023-04-14T22:29:59.327Z,2.58
2023-04-14T22:32:25.832Z,2.33
2023-04-14T22:34:52.298Z,2.60
2023-04-14T22:37:18.658Z,2.85
2023-04-14T22:39:45.074Z,2.45
2023-04-14T22:42:13.029Z,2.65
2023-04-14T22:44:39.446Z,2.50
2023-04-14T22:47:06.055Z,2.58
2023-04-14T22:49:32.512Z,2.60
2023-04-14T22:51:58.976Z,2.20
2023-04-14T22:54:25.434Z,2.25
2023-04-14T22:56:52.165Z,2.03
2023-04-14T22:59:18.925Z,2.30
2023-04-14T23:01:45.432Z,2.45
2023-04-14T23:04:11.890Z,1.95
2023-04-14T23:06:38.392Z,2.13
2023-04-14T23:09:05.532Z,2.35
2023-04-14T23:11:32.091Z,4.03
2023-04-14T23:13:58.521Z,2.30
2023-04-14T23:16:26.526Z,2.58
2023-04-14T23:18:53.290Z,2.10
2023-04-14T23:21:22.274Z,2.10
2023-04-14T23:23:49.509Z,1.92
2023-04-14T23:26:17.231Z,2.10
2023-04-14T23:28:43.691Z,2.28
2023-04-14T23:31:10.754Z,1.92
2023-04-14T23:33:37.167Z,2.15
2023-04-14T23:36:03.704Z,2.50
2023-04-14T23:38:30.587Z,2.35
2023-04-14T23:40:58.891Z,2.95
2023-04-14T23:43:27.392Z,2.60
2023-04-14T23:45:54.000Z,2.70
2023-04-14T23:48:20.739Z,2.70
2023-04-14T23:50:59.699Z,2.72
2023-04-14T23:53:32.095Z,3.55
2023-04-14T23:55:58.658Z,3.38
2023-04-14T23:58:27.011Z,2.92
